D/T METAR WX W/SPE G/SPE TEMP DEWP FEEL
31/01/23 13:20 EGUB 311320Z 29014KT 9999 FEW028 11/03 Q1023 NOSIG RMK BLU BLU 16.1mph 11°C 3°C 9.7°C
31/01/23 12:50 EGUB 311250Z 27013KT 9999 FEW022 SCT030 12/07 Q1023 NOSIG RMK BLU BLU 15.0mph 12°C 7°C 12.0°C
31/01/23 12:20 EGUB 311220Z 26012KT 9999 FEW020 BKN028 12/07 Q1023 TEMPO SCT020 RMK BLU TEMPO WHT 13.8mph 12°C 7°C 12.0°C
31/01/23 06:50 EGUB 310650Z 21009KT 9999 BKN011 07/05 Q1024 RMK GRN 10.4mph 7°C 5°C 6.3°C
30/01/23 22:20 EGUB 302220Z 20003KT CAVOK 02/01 Q1027 NOSIG RMK BLU BLU 3.5mph 2°C 1°C 0.1°C
30/01/23 12:50 EGUB 301250Z 30009KT 9999 FEW023 BKN180 08/02 Q1026 NOSIG RMK BLU BLU 10.4mph 8°C 2°C 6.4°C
30/01/23 11:50 EGUB 301150Z 29008KT CAVOK 08/02 Q1025 NOSIG RMK BLU BLU 9.2mph 8°C 2°C 6.4°C
30/01/23 10:50 EGUB 301050Z 28009KT CAVOK 07/02 Q1026 NOSIG RMK BLU BLU 10.4mph 7°C 2°C 5.4°C
30/01/23 10:20 EGUB 301020Z 29005KT 9999 FEW040 07/02 Q1025 NOSIG RMK BLU BLU 5.8mph 7°C 2°C 5.4°C
30/01/23 09:50 EGUB 300950Z 28006KT 9999 FEW040 SCT200 06/02 Q1025 NOSIG RMK BLU BLU 6.9mph 6°C 2°C 4.4°C
30/01/23 07:50 EGUB 300750Z 26006KT CAVOK 04/01 Q1024 RMK BLU 6.9mph 4°C 1°C 2.1°C
30/01/23 06:50 EGUB 300650Z 27007KT 9999 FEW045 06/02 Q1023 RMK BLU 8.1mph 6°C 2°C 4.4°C
09/01/23 06:20 EGUB 090620Z AUTO 23009KT 9999 NCD 05/03 Q0994 10.4mph 5°C 3°C 3.7°C
09/01/23 05:50 EGUB 090550Z AUTO 24010KT 9999 NCD 06/04 Q0994 11.5mph 6°C 4°C 5.0°C
09/01/23 05:20 EGUB 090520Z AUTO 24008KT 9999 FEW034/// 06/04 Q0994 9.2mph 6°C 4°C 5.0°C
09/01/23 04:50 EGUB 090450Z AUTO 24008KT 9999 FEW045/// BKN100/// 06/04 Q0994 9.2mph 6°C 4°C 5.0°C
09/01/23 04:20 EGUB 090420Z AUTO 24009KT 9999 FEW041/// 06/04 Q0993 10.4mph 6°C 4°C 5.0°C
09/01/23 03:50 EGUB 090350Z AUTO 24005KT 9999 FEW042/// 05/04 Q0993 5.8mph 5°C 4°C 4.0°C
09/01/23 03:20 EGUB 090320Z AUTO 19004KT 9999 BKN035/// BKN061/// 05/04 Q0992 4.6mph 5°C 4°C 4.0°C
09/01/23 02:50 EGUB 090250Z AUTO 22005KT 9999 NCD 04/03 Q0992 5.8mph 4°C 3°C 2.7°C
09/01/23 02:20 EGUB 090220Z AUTO 24006KT 9999 NCD 05/03 Q0991 6.9mph 5°C 3°C 3.7°C
09/01/23 01:20 EGUB 090120Z AUTO 26009KT 9999 -RA FEW041/// OVC092/// 06/04 Q0990 -RA 10.4mph 6°C 4°C 5.0°C
09/01/23 00:50 EGUB 090050Z AUTO 25007KT 9999 FEW014/// OVC069/// 06/05 Q0990 8.1mph 6°C 5°C 5.3°C
09/01/23 00:20 EGUB 090020Z AUTO 25005KT 9999 // FEW021/// BKN029/// BKN058/// 06/05 Q0989 5.8mph 6°C 5°C 5.3°C
08/01/23 23:50 EGUB 082350Z AUTO 21004KT 9999 // FEW020/// OVC026/// 06/05 Q0988 4.6mph 6°C 5°C 5.3°C
08/01/23 23:20 EGUB 082320Z AUTO 21005KT 9999 -DZ OVC012/// 06/05 Q0988 -DZ 5.8mph 6°C 5°C 5.3°C
08/01/23 22:50 EGUB 082250Z AUTO 18006KT 9999 DZ BKN017/// BKN041/// 06/05 Q0987 DZ 6.9mph 6°C 5°C 5.3°C
08/01/23 22:20 EGUB 082220Z AUTO 16009KT 9999 OVC025/// 06/05 Q0987 10.4mph 6°C 5°C 5.3°C
08/01/23 21:50 EGUB 082150Z AUTO 16010KT 9999 // SCT029/// BKN049/// 06/04 Q0987 11.5mph 6°C 4°C 5.0°C
08/01/23 20:20 EGUB 082020Z AUTO 17012KT 9999 FEW180/// 05/04 Q0988 13.8mph 5°C 4°C 4.0°C
08/01/23 19:20 EGUB 081920Z AUTO 19009KT 9999 NCD 04/03 Q0989 10.4mph 4°C 3°C 2.7°C
08/01/23 18:50 EGUB 081850Z AUTO 18009KT 9999 NCD 04/03 Q0989 10.4mph 4°C 3°C 2.7°C
08/01/23 18:20 EGUB 081820Z AUTO 17008KT 9999 // NCD 03/02 Q0989 9.2mph 3°C 2°C 1.4°C
08/01/23 17:50 EGUB 081750Z AUTO 20006KT 9999 // FEW047/// 04/02 Q0989 6.9mph 4°C 2°C 2.4°C
08/01/23 17:20 EGUB 081720Z AUTO 24008KT 9999 // FEW015/// SCT029/// 05/03 Q0989 9.2mph 5°C 3°C 3.7°C
08/01/23 16:50 EGUB 081650Z AUTO 24010KT 9999 // OVC012/// 06/04 Q0989 11.5mph 6°C 4°C 5.0°C
08/01/23 16:20 EGUB 081620Z AUTO 21013KT 2800 RA OVC014/// 06/05 Q0988 RA 15.0mph 6°C 5°C 5.3°C
08/01/23 15:50 EGUB 081550Z AUTO 20008KT 9000 RA OVC013/// 08/06 Q0988 RA 9.2mph 8°C 6°C 7.6°C
08/01/23 15:20 EGUB 081520Z AUTO 19008KT 9999 BKN020/// BKN039/// 08/05 Q0988 9.2mph 8°C 5°C 7.3°C
08/01/23 14:20 EGUB 081420Z AUTO 18011KT 9999 // FEW043/// 08/06 Q0988 12.7mph 8°C 6°C 7.6°C
08/01/23 13:50 EGUB 081350Z AUTO 18010KT 9999 // BKN054/// SCT078/// 08/06 Q0988 11.5mph 8°C 6°C 7.6°C
08/01/23 13:20 EGUB 081320Z AUTO 17013KT 9999 -RA FEW016/// SCT026/// 08/06 Q0988 -RA 15.0mph 8°C 6°C 7.6°C
08/01/23 12:50 EGUB 081250Z AUTO 21013KT 4800 RA OVC013/// 06/05 Q0989 RA 15.0mph 6°C 5°C 5.3°C
08/01/23 12:20 EGUB 081220Z AUTO 19013KT 8000 RA OVC016/// 08/06 Q0990 RA 15.0mph 8°C 6°C 7.6°C
08/01/23 11:50 EGUB 081150Z AUTO 19014KT 9999 // SCT019/// SCT039/// 08/06 Q0990 16.1mph 8°C 6°C 7.6°C
08/01/23 11:20 EGUB 081120Z AUTO 18014KT 9999 // BKN033/// BKN066/// 08/07 Q0991 16.1mph 8°C 7°C 8.0°C
08/01/23 10:50 EGUB 081050Z AUTO 19015KT 9999 -RA FEW031/// BKN039/// 08/05 Q0991 -RA 17.3mph 8°C 5°C 7.3°C
08/01/23 10:20 EGUB 081020Z AUTO 16013KT 9999 FEW014/// 08/06 Q0991 15.0mph 8°C 6°C 7.6°C
08/01/23 09:50 EGUB 080950Z AUTO 16015KT 9999 NCD 07/06 Q0992 17.3mph 7°C 6°C 6.6°C
08/01/23 09:20 EGUB 080920Z AUTO 16013KT 9999 FEW012/// 07/06 Q0992 15.0mph 7°C 6°C 6.6°C
08/01/23 08:50 EGUB 080850Z AUTO 16012KT 9999 SCT033/// 06/05 Q0992 13.8mph 6°C 5°C 5.3°C
08/01/23 08:20 EGUB 080820Z AUTO 17012KT 9999 NCD 06/04 Q0993 13.8mph 6°C 4°C 5.0°C
08/01/23 07:50 EGUB 080750Z AUTO 17011KT 9999 FEW050/// 05/04 Q0993 12.7mph 5°C 4°C 4.0°C
08/01/23 07:20 EGUB 080720Z AUTO 18014KT 9999 BKN050/// 06/05 Q0993 16.1mph 6°C 5°C 5.3°C
08/01/23 06:50 EGUB 080650Z AUTO 18012KT 9999 // FEW024/// 06/05 Q0994 13.8mph 6°C 5°C 5.3°C
08/01/23 06:20 EGUB 080620Z AUTO 18011KT 9999 // FEW057/// 06/04 Q0994 12.7mph 6°C 4°C 5.0°C
08/01/23 05:50 EGUB 080550Z AUTO 18011KT 9999 -RA FEW039/// BKN063/// 06/05 Q0994 -RA 12.7mph 6°C 5°C 5.3°C
08/01/23 05:20 EGUB 080520Z AUTO 18013KT 9999 FEW046/// 06/04 Q0994 15.0mph 6°C 4°C 5.0°C
08/01/23 04:50 EGUB 080450Z AUTO 18012KT 9999 SCT042/// BKN100/// 06/04 Q0994 13.8mph 6°C 4°C 5.0°C
08/01/23 04:20 EGUB 080420Z AUTO 18011KT 9999 FEW084/// BKN096/// 06/04 Q0994 12.7mph 6°C 4°C 5.0°C
08/01/23 03:50 EGUB 080350Z AUTO 19012KT 9999 NCD 06/04 Q0994 13.8mph 6°C 4°C 5.0°C
08/01/23 03:20 EGUB 080320Z AUTO 19015KT 9999 // SCT077/// 07/04 Q0995 17.3mph 7°C 4°C 6.0°C
08/01/23 02:50 EGUB 080250Z AUTO 19014KT 9999 // NCD 08/05 Q0994 16.1mph 8°C 5°C 7.3°C
08/01/23 02:20 EGUB 080220Z AUTO 19013KT 9999 -DZ NCD 08/05 Q0994 -DZ 15.0mph 8°C 5°C 7.3°C
08/01/23 01:50 EGUB 080150Z AUTO 18013KT 9999 NCD 07/05 Q0995 15.0mph 7°C 5°C 6.3°C
08/01/23 01:20 EGUB 080120Z AUTO 19012KT 9999 FEW073/// SCT140/// 08/05 Q0995 13.8mph 8°C 5°C 7.3°C
08/01/23 00:20 EGUB 080020Z AUTO 18014KT 9999 FEW150/// 08/05 Q0995 16.1mph 8°C 5°C 7.3°C
07/01/23 23:50 EGUB 072350Z AUTO 18014KT 9999 FEW150/// 07/05 Q0995 16.1mph 7°C 5°C 6.3°C
07/01/23 23:20 EGUB 072320Z AUTO 18012KT 9999 FEW029/// 07/05 Q0996 13.8mph 7°C 5°C 6.3°C
07/01/23 22:50 EGUB 072250Z AUTO 18013KT 9999 FEW041/// 06/05 Q0996 15.0mph 6°C 5°C 5.3°C
07/01/23 22:20 EGUB 072220Z AUTO 18015KT 9999 NCD 07/05 Q0996 17.3mph 7°C 5°C 6.3°C
07/01/23 21:50 EGUB 072150Z AUTO 18015KT 9999 NCD 07/04 Q0996 17.3mph 7°C 4°C 6.0°C
07/01/23 21:20 EGUB 072120Z AUTO 18015KT 9999 NCD 07/04 Q0996 17.3mph 7°C 4°C 6.0°C
07/01/23 20:50 EGUB 072050Z AUTO 19013KT 9999 NCD 07/04 Q0996 15.0mph 7°C 4°C 6.0°C
07/01/23 20:20 EGUB 072020Z AUTO 20014KT 9999 NCD 07/04 Q0996 16.1mph 7°C 4°C 6.0°C
07/01/23 19:50 EGUB 071950Z AUTO 20014KT 9999 NCD 07/04 Q0996 16.1mph 7°C 4°C 6.0°C
07/01/23 19:20 EGUB 071920Z AUTO 20014KT 9999 NCD 08/04 Q0996 16.1mph 8°C 4°C 7.0°C
07/01/23 18:50 EGUB 071850Z AUTO 21014KT 9999 FEW025/// SCT095/// 08/05 Q0995 16.1mph 8°C 5°C 7.3°C
07/01/23 18:20 EGUB 071820Z AUTO 21013G23KT 9999 // FEW023/// BKN130/// 08/05 Q0995 15.0mph 26.5mph 8°C 5°C 7.3°C
07/01/23 17:50 EGUB 071750Z AUTO 21016KT 9999 // FEW026/// BKN100/// 08/05 Q0994 18.4mph 8°C 5°C 7.3°C
07/01/23 17:20 EGUB 071720Z AUTO 22017G29KT 9999 // SCT024/// SCT081/// 09/06 Q0994 19.6mph 33.4mph 9°C 6°C 8.6°C
07/01/23 16:50 EGUB 071650Z AUTO 20016KT 9999 -RA SCT021/// BKN045/// 10/07 Q0994 -RA 18.4mph 10°C 7°C 10.0°C
07/01/23 16:20 EGUB 071620Z AUTO 18015KT 9999 // FEW020/// 10/08 Q0993 17.3mph 10°C 8°C 10.4°C
07/01/23 15:50 EGUB 071550Z AUTO 18012G22KT 9999 -RA OVC017/// 10/08 Q0994 -RA 13.8mph 25.3mph 10°C 8°C 10.4°C
07/01/23 15:20 EGUB 071520Z AUTO 20011KT 9999 RA FEW010/// OVC023/// 09/08 Q0994 RA 12.7mph 9°C 8°C 9.4°C
07/01/23 14:50 EGUB 071450Z AUTO 21012G23KT 1400 RA OVC010/// 10/09 Q0994 RA 13.8mph 26.5mph 10°C 9°C 10.8°C
07/01/23 14:20 EGUB 071420Z AUTO 19013G23KT 9999 // OVC013/// 11/09 Q0994 15.0mph 26.5mph 11°C 9°C 11.8°C
07/01/23 13:50 EGUB 071350Z AUTO 19013KT 9999 RA OVC012/// 11/10 Q0995 RA 15.0mph 11°C 10°C 12.3°C
07/01/23 12:50 EGUB 071250Z AUTO 18016KT 5000 -RA OVC011/// 11/10 Q0995 -RA 18.4mph 11°C 10°C 12.3°C
07/01/23 12:20 EGUB 071220Z AUTO 18017KT 9999 -RA OVC013/// 11/09 Q0995 -RA 19.6mph 11°C 9°C 11.8°C
07/01/23 11:50 EGUB 071150Z AUTO 18019KT 9999 // OVC013/// 11/09 Q0996 21.9mph 11°C 9°C 11.8°C
07/01/23 11:20 EGUB 071120Z AUTO 18019KT 9999 -RADZ OVC012/// 11/09 Q0997 -RA -DZ 21.9mph 11°C 9°C 11.8°C
07/01/23 10:50 EGUB 071050Z AUTO 18019G30KT 9999 -DZ OVC012/// 11/09 Q0997 -DZ 21.9mph 34.5mph 11°C 9°C 11.8°C
07/01/23 10:20 EGUB 071020Z AUTO 18021KT 6000 -RA OVC009/// 11/09 Q0997 -RA 24.2mph 11°C 9°C 11.8°C
07/01/23 09:50 EGUB 070950Z AUTO 18020G30KT 5000 -RA OVC011/// 11/09 Q0997 -RA 23.0mph 34.5mph 11°C 9°C 11.8°C
07/01/23 09:20 EGUB 070920Z AUTO 18019KT 8000 -RA OVC010/// 10/09 Q0998 -RA 21.9mph 10°C 9°C 10.8°C